Thornhill, Canada
Current Conditions -  °F | °C
As of 5:00 AM on Saturday 01 Nov 2014 (Local Time) from CYKZ Reporting Station
Light Snow Light Snow  
Wind Chill: 25°   Ceiling: 6400
Heat Index: 34°   Visibility: 15mi
Dew Point: 32°   Wind: 12mph
Humidity: 93%   Direction: 10°N
Pressure: 30.09"   Gusts: NA
Location:  43.8°N, 79.42°W
Report Text: CYKZ 010900Z 01010KT 15SM -SN SCT012 OVC064 01/M00 A3009 RMKSF4SC4 SLP197
Loading
Personal Weather Stations






























Interactive Weather Map
Tropical Storm Tracking
New forecast layout! Learn more

10-Day Weather Forecast

Advertisements
Track Severe Weather on mobile